createdAt,value
2023-04-04T00:01:35.099Z,3.24
2023-04-04T00:04:06.348Z,3.21
2023-04-04T00:06:37.728Z,3.18
2023-04-04T00:09:08.762Z,3.17
2023-04-04T00:11:38.208Z,3.16
2023-04-04T00:14:09.233Z,3.16
2023-04-04T00:16:38.819Z,3.13
2023-04-04T00:19:09.558Z,3.11
2023-04-04T00:21:41.394Z,3.06
2023-04-04T00:24:12.825Z,3.05
2023-04-04T00:26:41.764Z,3.01
2023-04-04T00:29:11.871Z,2.97
2023-04-04T00:31:41.494Z,2.94
2023-04-04T00:34:11.630Z,2.87
2023-04-04T00:36:43.662Z,2.88
2023-04-04T00:39:14.258Z,2.86
2023-04-04T00:41:43.173Z,2.84
2023-04-04T00:44:13.756Z,2.84
2023-04-04T00:46:43.343Z,2.86
2023-04-04T00:49:13.083Z,2.85
2023-04-04T00:51:44.949Z,2.85
2023-04-04T00:54:15.079Z,2.83
2023-04-04T00:56:44.360Z,2.77
2023-04-04T00:59:14.036Z,2.79
2023-04-04T01:01:43.633Z,2.80
2023-04-04T01:04:14.308Z,2.79
2023-04-04T01:06:46.475Z,2.79
2023-04-04T01:09:15.250Z,2.75
2023-04-04T01:11:45.834Z,2.68
2023-04-04T01:14:15.448Z,2.65
2023-04-04T01:16:45.818Z,2.64
2023-04-04T01:19:26.035Z,2.60
2023-04-04T01:22:00.677Z,2.58
2023-04-04T01:24:35.360Z,2.58
2023-04-04T01:27:07.322Z,2.52
2023-04-04T01:29:36.860Z,2.51
2023-04-04T01:32:14.985Z,2.47
2023-04-04T01:35:03.808Z,2.46
2023-04-04T01:37:42.129Z,2.46
2023-04-04T01:40:20.127Z,2.38
2023-04-04T01:42:52.279Z,2.34
2023-04-04T01:45:24.317Z,2.36
2023-04-04T01:47:54.230Z,2.34
2023-04-04T01:50:24.165Z,2.33
2023-04-04T01:52:54.296Z,2.28
2023-04-04T01:55:24.912Z,2.30
2023-04-04T01:57:55.235Z,2.31
2023-04-04T02:00:25.305Z,2.32
2023-04-04T02:02:55.796Z,2.32
2023-04-04T02:05:24.822Z,2.34
2023-04-04T02:07:55.422Z,2.34
2023-04-04T02:10:25.383Z,2.27
2023-04-04T02:12:58.098Z,2.23
2023-04-04T02:15:28.263Z,2.20
2023-04-04T02:18:01.797Z,2.19
2023-04-04T02:20:32.223Z,2.21
2023-04-04T02:23:01.456Z,2.23
2023-04-04T02:25:31.478Z,2.24
2023-04-04T02:28:03.342Z,2.23
2023-04-04T02:30:33.772Z,2.21
2023-04-04T02:33:03.794Z,2.18
2023-04-04T02:35:33.263Z,2.15
2023-04-04T02:38:03.280Z,2.10
2023-04-04T02:40:33.355Z,2.09
2023-04-04T02:43:05.292Z,2.06
2023-04-04T02:45:36.337Z,2.05
2023-04-04T02:48:08.153Z,2.01
2023-04-04T02:50:37.674Z,1.95
2023-04-04T02:53:07.707Z,1.93
2023-04-04T02:55:37.233Z,1.94
2023-04-04T02:58:08.232Z,1.96
2023-04-04T03:00:38.498Z,1.96
2023-04-04T03:03:07.886Z,1.92
2023-04-04T03:05:37.979Z,1.86
2023-04-04T03:08:07.613Z,1.83
2023-04-04T03:10:36.766Z,1.86
2023-04-04T03:13:07.833Z,1.82
2023-04-04T03:15:38.471Z,1.80
2023-04-04T03:18:08.941Z,1.75
2023-04-04T03:20:39.077Z,1.71
2023-04-04T03:23:09.708Z,1.68
2023-04-04T03:25:40.038Z,1.70
2023-04-04T03:28:13.674Z,1.66
2023-04-04T03:30:48.271Z,1.60
2023-04-04T03:33:18.444Z,1.58
2023-04-04T03:35:48.381Z,1.54
2023-04-04T03:38:18.318Z,1.55
2023-04-04T03:40:47.093Z,1.50
2023-04-04T03:43:17.402Z,1.49
2023-04-04T03:45:48.827Z,1.45
2023-04-04T03:48:18.361Z,1.44
2023-04-04T03:50:48.341Z,1.37
2023-04-04T03:53:18.729Z,1.34
2023-04-04T03:55:48.405Z,1.36
2023-04-04T03:58:19.765Z,1.37
2023-04-04T04:00:49.434Z,1.34
2023-04-04T04:03:20.548Z,1.24
2023-04-04T04:05:51.400Z,1.22
2023-04-04T04:08:22.496Z,1.21
2023-04-04T04:10:53.211Z,1.23
2023-04-04T04:13:24.480Z,1.28
2023-04-04T04:15:55.833Z,1.24
2023-04-04T04:18:25.218Z,1.24
2023-04-04T04:21:02.465Z,1.22
2023-04-04T04:23:32.170Z,1.20
2023-04-04T04:26:01.070Z,1.19
2023-04-04T04:28:33.655Z,1.20
2023-04-04T04:31:08.116Z,1.20
2023-04-04T04:33:39.423Z,1.20
2023-04-04T04:36:09.986Z,1.18
2023-04-04T04:38:40.001Z,1.18
2023-04-04T04:41:10.130Z,1.17
2023-04-04T04:43:41.778Z,1.20
2023-04-04T04:46:11.117Z,1.18
2023-04-04T04:48:41.042Z,1.15
2023-04-04T04:51:11.120Z,1.08
2023-04-04T04:53:41.240Z,1.06
2023-04-04T04:56:12.272Z,1.03
2023-04-04T04:58:43.226Z,1.00
2023-04-04T05:01:12.720Z,1.00
2023-04-04T05:03:42.645Z,1.02
2023-04-04T05:06:13.078Z,0.98
2023-04-04T05:08:43.126Z,0.90
2023-04-04T05:11:13.580Z,0.91
2023-04-04T05:13:46.322Z,0.91
2023-04-04T05:16:16.901Z,0.90
2023-04-04T05:18:47.313Z,0.90
2023-04-04T05:21:17.702Z,0.92
2023-04-04T05:23:49.106Z,0.89
2023-04-04T05:26:18.965Z,0.90
2023-04-04T05:28:50.227Z,0.96
2023-04-04T05:31:22.244Z,1.01
2023-04-04T05:33:51.217Z,0.98
2023-04-04T05:36:20.586Z,0.98
2023-04-04T05:38:51.101Z,1.00
2023-04-04T05:41:20.516Z,1.02
2023-04-04T05:43:51.519Z,1.03
2023-04-04T05:46:21.526Z,1.07
2023-04-04T05:48:52.051Z,1.09
2023-04-04T05:51:22.136Z,1.12
2023-04-04T05:53:51.982Z,1.11
2023-04-04T05:56:21.960Z,1.08
2023-04-04T05:58:52.703Z,1.08
2023-04-04T06:01:23.697Z,1.10
2023-04-04T06:03:54.088Z,1.11
2023-04-04T06:06:24.308Z,1.13
2023-04-04T06:08:54.236Z,1.17
2023-04-04T06:14:09.645Z,1.23
2023-04-04T06:16:39.262Z,1.22
2023-04-04T06:19:09.529Z,1.23
2023-04-04T06:21:39.827Z,1.25
2023-04-04T06:24:11.334Z,1.30
2023-04-04T06:26:41.838Z,1.29
2023-04-04T06:29:13.353Z,1.30
2023-04-04T06:31:45.774Z,1.33
2023-04-04T06:34:15.463Z,1.29
2023-04-04T06:36:45.004Z,1.34
2023-04-04T06:39:14.636Z,1.35
2023-04-04T06:41:44.773Z,1.32
2023-04-04T06:44:17.436Z,1.40
2023-04-04T06:46:49.113Z,1.42
2023-04-04T06:49:22.164Z,1.43
2023-04-04T06:51:53.173Z,1.48
2023-04-04T06:54:23.568Z,1.47
2023-04-04T06:56:53.651Z,1.50
2023-04-04T06:59:25.114Z,1.51
2023-04-04T07:01:56.101Z,1.53
2023-04-04T07:04:26.582Z,1.56
2023-04-04T07:06:56.644Z,1.56
2023-04-04T07:09:29.536Z,1.61
2023-04-04T07:12:00.828Z,1.62
2023-04-04T07:14:31.217Z,1.65
2023-04-04T07:19:30.786Z,1.75
2023-04-04T07:21:59.760Z,1.69
2023-04-04T07:24:30.126Z,1.75
2023-04-04T07:26:59.480Z,1.80
2023-04-04T07:29:29.559Z,1.83
2023-04-04T07:32:01.317Z,1.85
2023-04-04T07:34:31.837Z,1.88
2023-04-04T07:37:01.789Z,1.94
2023-04-04T07:39:31.385Z,1.98
2023-04-04T07:42:01.435Z,2.02
2023-04-04T07:44:31.886Z,2.08
2023-04-04T07:47:09.802Z,2.12
2023-04-04T07:49:41.802Z,2.12
2023-04-04T07:52:12.949Z,2.15
2023-04-04T07:54:41.533Z,2.14
2023-04-04T07:57:11.688Z,2.17
2023-04-04T07:59:41.798Z,2.24
2023-04-04T08:02:13.740Z,2.24
2023-04-04T08:04:43.612Z,2.29
2023-04-04T08:07:14.203Z,2.32
2023-04-04T08:09:44.283Z,2.39
2023-04-04T08:12:14.184Z,2.42
2023-04-04T08:14:44.086Z,2.44
2023-04-04T08:17:19.568Z,2.50
2023-04-04T08:19:50.060Z,2.55
2023-04-04T08:22:20.129Z,2.55
2023-04-04T08:24:50.265Z,2.58
2023-04-04T08:27:20.526Z,2.60
2023-04-04T08:29:49.903Z,2.63
2023-04-04T08:32:21.218Z,2.70
2023-04-04T08:34:52.271Z,2.76
2023-04-04T08:37:22.955Z,2.79
2023-04-04T08:39:53.374Z,2.82
2023-04-04T08:42:24.793Z,2.82
2023-04-04T08:44:59.083Z,2.85
2023-04-04T08:47:33.036Z,2.94
2023-04-04T08:50:05.629Z,3.02
2023-04-04T08:52:36.385Z,3.02
2023-04-04T08:55:08.190Z,3.07
2023-04-04T08:57:38.465Z,3.08
2023-04-04T09:00:11.473Z,3.10
2023-04-04T09:02:59.254Z,3.17
2023-04-04T09:05:29.923Z,3.27
2023-04-04T09:08:00.165Z,3.34
2023-04-04T09:10:29.859Z,3.40
2023-04-04T09:13:12.412Z,3.43
2023-04-04T09:15:50.111Z,3.46
2023-04-04T09:18:22.115Z,3.52
2023-04-04T09:20:52.757Z,3.55
2023-04-04T09:23:24.454Z,3.56
2023-04-04T09:26:03.865Z,3.57
2023-04-04T09:28:35.129Z,3.60
2023-04-04T09:31:10.007Z,3.63
2023-04-04T09:33:41.731Z,3.66
2023-04-04T09:36:17.145Z,3.70
2023-04-04T09:38:49.401Z,3.76
2023-04-04T09:41:20.949Z,3.81
2023-04-04T09:43:51.248Z,3.83
2023-04-04T09:46:22.531Z,3.86
2023-04-04T09:48:53.076Z,3.83
2023-04-04T09:51:22.033Z,3.78
2023-04-04T09:53:52.630Z,3.86
2023-04-04T09:56:23.075Z,3.91
2023-04-04T09:59:03.138Z,3.96
2023-04-04T10:01:34.080Z,4.01
2023-04-04T10:04:06.974Z,4.14
2023-04-04T10:06:38.561Z,4.24
2023-04-04T10:09:10.668Z,4.20
2023-04-04T10:11:40.623Z,4.24
2023-04-04T10:14:12.361Z,4.28
2023-04-04T10:16:47.556Z,4.27
2023-04-04T10:19:19.668Z,4.27
2023-04-04T10:21:49.834Z,4.24
2023-04-04T10:24:19.736Z,4.34
2023-04-04T10:26:49.010Z,4.42
2023-04-04T10:29:19.409Z,4.45
2023-04-04T10:31:55.644Z,4.53
2023-04-04T10:34:38.817Z,4.58
2023-04-04T10:37:14.303Z,4.66
2023-04-04T10:39:53.917Z,4.63
2023-04-04T10:42:26.432Z,4.63
2023-04-04T10:45:09.165Z,4.66
2023-04-04T10:47:47.845Z,4.66
2023-04-04T10:50:18.125Z,4.66
2023-04-04T10:52:48.652Z,4.77
2023-04-04T10:55:18.765Z,4.77
2023-04-04T10:57:55.727Z,4.74
2023-04-04T11:00:26.251Z,4.79
2023-04-04T11:03:00.097Z,4.83
2023-04-04T11:05:34.697Z,4.90
2023-04-04T11:08:08.746Z,4.91
2023-04-04T11:10:39.971Z,4.94
2023-04-04T11:13:15.062Z,4.97
2023-04-04T11:15:58.742Z,5.06
2023-04-04T11:19:00.944Z,5.14
2023-04-04T11:21:34.901Z,5.19
2023-04-04T11:24:19.343Z,5.23
2023-04-04T11:26:48.764Z,5.22
2023-04-04T11:29:53.949Z,5.21
2023-04-04T11:32:50.014Z,5.22
2023-04-04T11:35:26.539Z,5.27
2023-04-04T11:38:05.039Z,5.33
2023-04-04T11:40:41.857Z,5.38
2023-04-04T11:43:14.369Z,5.43
2023-04-04T11:45:47.542Z,5.44
2023-04-04T11:48:20.716Z,5.44
2023-04-04T11:50:51.960Z,5.50
2023-04-04T11:53:23.529Z,5.52
2023-04-04T11:55:53.053Z,5.52
2023-04-04T11:58:22.147Z,5.51
2023-04-04T12:00:50.936Z,5.63
2023-04-04T12:03:20.588Z,5.74
2023-04-04T12:05:51.662Z,5.79
2023-04-04T12:08:23.990Z,5.84
2023-04-04T12:10:54.588Z,5.83
2023-04-04T12:13:32.332Z,5.85
2023-04-04T12:16:02.461Z,5.86
2023-04-04T12:18:32.059Z,5.90
2023-04-04T12:21:01.284Z,5.99
2023-04-04T12:23:36.354Z,6.08
2023-04-04T12:26:06.652Z,6.10
2023-04-04T12:28:36.224Z,6.20
2023-04-04T12:31:07.322Z,6.20
2023-04-04T12:33:38.119Z,6.24
2023-04-04T12:36:09.014Z,6.24
2023-04-04T12:38:59.857Z,6.30
2023-04-04T12:41:28.916Z,6.33
2023-04-04T12:44:06.067Z,6.40
2023-04-04T12:46:40.517Z,6.48
2023-04-04T12:49:13.163Z,6.57
2023-04-04T12:51:42.895Z,6.63
2023-04-04T12:54:29.592Z,6.66
2023-04-04T12:57:00.942Z,6.66
2023-04-04T12:59:31.944Z,6.69
2023-04-04T13:02:03.926Z,6.72
2023-04-04T13:04:34.757Z,6.73
2023-04-04T13:07:05.079Z,6.76
2023-04-04T13:09:37.054Z,6.68
2023-04-04T13:12:10.454Z,6.75
2023-04-04T13:15:01.843Z,6.76
2023-04-04T13:17:45.408Z,6.79
2023-04-04T13:20:16.868Z,6.87
2023-04-04T13:22:46.100Z,6.97
2023-04-04T13:25:16.808Z,7.05
2023-04-04T13:27:46.969Z,7.06
2023-04-04T13:30:16.299Z,7.07
2023-04-04T13:32:45.888Z,7.12
2023-04-04T13:35:16.356Z,7.15
2023-04-04T13:37:45.432Z,7.19
2023-04-04T13:40:16.107Z,7.25
2023-04-04T13:42:46.455Z,7.31
2023-04-04T13:45:17.851Z,7.41
2023-04-04T13:47:48.630Z,7.48
2023-04-04T13:50:18.210Z,7.75
2023-04-04T13:52:48.794Z,8.08
2023-04-04T13:55:19.012Z,8.73
2023-04-04T13:57:48.520Z,9.24
2023-04-04T14:00:19.208Z,9.65
2023-04-04T14:02:53.030Z,9.90
2023-04-04T14:05:24.629Z,9.93
2023-04-04T14:07:54.059Z,9.92
2023-04-04T14:10:24.267Z,9.87
2023-04-04T14:12:54.734Z,9.65
2023-04-04T14:15:24.347Z,9.60
2023-04-04T14:17:54.363Z,9.59
2023-04-04T14:20:24.414Z,9.51
2023-04-04T14:22:54.394Z,9.45
2023-04-04T14:25:26.277Z,9.42
2023-04-04T14:27:56.649Z,9.48
2023-04-04T14:30:27.313Z,9.48
2023-04-04T14:32:57.294Z,9.50
2023-04-04T14:35:27.621Z,9.46
2023-04-04T14:37:57.206Z,9.40
2023-04-04T14:40:30.040Z,9.41
2023-04-04T14:42:59.531Z,9.46
2023-04-04T14:45:28.676Z,9.49
2023-04-04T14:47:59.360Z,9.47
2023-04-04T14:50:29.961Z,9.52
2023-04-04T14:52:59.356Z,9.56
2023-04-04T14:55:30.936Z,9.56
2023-04-04T14:58:02.958Z,9.69
2023-04-04T15:00:32.063Z,9.73
2023-04-04T15:03:01.073Z,9.77
2023-04-04T15:05:36.002Z,9.79
2023-04-04T15:08:06.491Z,9.83
2023-04-04T15:10:36.697Z,9.87
2023-04-04T15:13:06.943Z,9.93
2023-04-04T15:15:35.554Z,9.93
2023-04-04T15:18:05.990Z,9.96
2023-04-04T15:20:39.900Z,10.01
2023-04-04T15:23:11.683Z,10.06
2023-04-04T15:25:42.900Z,10.03
2023-04-04T15:28:11.980Z,10.02
2023-04-04T15:30:42.171Z,10.01
2023-04-04T15:33:13.595Z,10.05
2023-04-04T15:35:42.552Z,10.03
2023-04-04T15:38:13.607Z,10.06
2023-04-04T15:40:44.965Z,10.03
2023-04-04T15:43:13.957Z,9.99
2023-04-04T15:45:43.692Z,9.98
2023-04-04T15:48:14.022Z,9.90
2023-04-04T15:50:44.049Z,9.88
2023-04-04T15:53:13.904Z,9.94
2023-04-04T15:55:46.259Z,10.01
2023-04-04T15:58:15.610Z,10.05
2023-04-04T16:00:49.260Z,10.04
2023-04-04T16:03:18.903Z,10.06
2023-04-04T16:05:47.764Z,10.05
2023-04-04T16:08:18.261Z,10.03
2023-04-04T16:10:49.090Z,9.89
2023-04-04T16:13:18.631Z,9.88
2023-04-04T16:15:48.639Z,9.82
2023-04-04T16:18:18.306Z,9.77
2023-04-04T16:20:47.715Z,9.69
2023-04-04T16:23:16.304Z,9.65
2023-04-04T16:25:45.437Z,9.61
2023-04-04T16:28:16.790Z,9.57
2023-04-04T16:30:45.445Z,9.55
2023-04-04T16:33:15.061Z,9.54
2023-04-04T16:35:45.110Z,9.51
2023-04-04T16:38:14.124Z,9.48
2023-04-04T16:40:43.712Z,9.39
2023-04-04T16:43:12.831Z,9.32
2023-04-04T16:45:45.549Z,9.28
2023-04-04T16:48:15.101Z,9.25
2023-04-04T16:50:44.783Z,9.20
2023-04-04T16:53:13.736Z,9.15
2023-04-04T16:55:43.312Z,9.10
2023-04-04T16:58:13.271Z,9.07
2023-04-04T17:00:45.296Z,8.99
2023-04-04T17:03:15.545Z,8.98
2023-04-04T17:05:44.626Z,8.95
2023-04-04T17:08:13.575Z,8.89
2023-04-04T17:10:43.688Z,8.90
2023-04-04T17:13:13.650Z,8.84
2023-04-04T17:15:45.062Z,8.78
2023-04-04T17:18:14.617Z,8.72
2023-04-04T17:20:44.640Z,8.68
2023-04-04T17:23:14.818Z,8.62
2023-04-04T17:25:44.308Z,8.57
2023-04-04T17:28:14.237Z,8.55
2023-04-04T17:30:44.618Z,8.52
2023-04-04T17:33:14.908Z,8.48
2023-04-04T17:35:44.393Z,8.43
2023-04-04T17:38:14.964Z,8.36
2023-04-04T17:40:43.984Z,8.31
2023-04-04T17:43:13.461Z,8.27
2023-04-04T17:45:46.653Z,8.23
2023-04-04T17:48:17.268Z,8.19
2023-04-04T17:50:48.400Z,8.15
2023-04-04T17:53:18.680Z,8.10
2023-04-04T17:55:48.521Z,8.04
2023-04-04T17:58:18.097Z,7.99
2023-04-04T18:00:48.398Z,7.92
2023-04-04T18:03:20.009Z,7.89
2023-04-04T18:05:49.687Z,7.83
2023-04-04T18:08:19.311Z,7.74
2023-04-04T18:10:48.446Z,7.60
2023-04-04T18:13:17.603Z,7.51
2023-04-04T18:15:50.893Z,7.42
2023-04-04T18:18:21.844Z,7.30
2023-04-04T18:20:52.029Z,7.20
2023-04-04T18:23:21.761Z,7.09
2023-04-04T18:25:51.889Z,7.05
2023-04-04T18:28:21.544Z,7.04
2023-04-04T18:30:53.086Z,7.04
2023-04-04T18:33:21.669Z,6.86
2023-04-04T18:35:51.772Z,6.78
2023-04-04T18:38:21.229Z,6.68
2023-04-04T18:40:50.807Z,6.53
2023-04-04T18:43:19.790Z,6.48
2023-04-04T18:45:48.350Z,6.43
2023-04-04T18:48:19.684Z,6.40
2023-04-04T18:50:49.146Z,6.34
2023-04-04T18:53:18.640Z,6.29
2023-04-04T18:55:49.891Z,6.20
2023-04-04T18:58:20.918Z,6.12
2023-04-04T19:00:53.145Z,6.12
2023-04-04T19:03:23.512Z,6.10
2023-04-04T19:05:55.430Z,6.03
2023-04-04T19:08:26.242Z,6.00
2023-04-04T19:10:56.647Z,5.93
2023-04-04T19:13:26.020Z,5.83
2023-04-04T19:15:56.521Z,5.67
2023-04-04T19:18:27.564Z,5.63
2023-04-04T19:20:57.337Z,5.61
2023-04-04T19:23:27.787Z,5.57
2023-04-04T19:25:57.455Z,5.52
2023-04-04T19:28:27.532Z,5.48
2023-04-04T19:30:57.648Z,5.43
2023-04-04T19:33:28.184Z,5.38
2023-04-04T19:36:01.476Z,5.35
2023-04-04T19:38:33.832Z,5.31
2023-04-04T19:41:05.064Z,5.27
2023-04-04T19:43:34.973Z,5.17
2023-04-04T19:46:11.159Z,5.09
2023-04-04T19:48:46.173Z,5.05
2023-04-04T19:51:41.135Z,4.96
2023-04-04T19:54:16.019Z,4.93
2023-04-04T19:56:48.429Z,4.91
2023-04-04T20:00:05.045Z,4.89
2023-04-04T20:02:57.854Z,4.82
2023-04-04T20:06:08.124Z,4.70
2023-04-04T20:08:44.622Z,4.62
2023-04-04T20:11:14.996Z,4.61
2023-04-04T20:13:45.436Z,4.52
2023-04-04T20:16:16.725Z,4.44
2023-04-04T20:18:48.238Z,4.40
2023-04-04T20:21:21.333Z,4.32
2023-04-04T20:23:54.304Z,4.24
2023-04-04T20:26:52.823Z,4.20
2023-04-04T20:29:26.105Z,4.12
2023-04-04T20:31:58.786Z,4.08
2023-04-04T20:34:42.898Z,4.04
2023-04-04T20:37:20.431Z,3.99
2023-04-04T20:39:53.611Z,3.87
2023-04-04T20:42:41.384Z,3.84
2023-04-04T20:49:11.493Z,3.89
2023-04-04T20:51:42.527Z,3.84
2023-04-04T20:54:12.465Z,3.75
2023-04-04T20:56:55.544Z,3.70
2023-04-04T20:59:40.644Z,3.66
2023-04-04T21:02:13.487Z,3.64
2023-04-04T21:04:45.607Z,3.66
2023-04-04T21:07:46.465Z,3.62
2023-04-04T21:10:45.952Z,3.55
2023-04-04T21:13:14.634Z,3.47
2023-04-04T21:15:43.599Z,3.44
2023-04-04T21:18:14.135Z,3.47
2023-04-04T21:21:12.731Z,3.46
2023-04-04T21:23:54.195Z,3.46
2023-04-04T21:26:34.435Z,3.37
2023-04-04T21:29:06.302Z,3.39
2023-04-04T21:31:41.043Z,3.35
2023-04-04T21:34:16.641Z,3.28
2023-04-04T21:36:47.387Z,3.28
2023-04-04T21:39:23.828Z,3.23
2023-04-04T21:41:58.537Z,3.18
2023-04-04T21:44:28.769Z,3.17
2023-04-04T21:46:59.138Z,3.10
2023-04-04T21:49:29.455Z,3.04
2023-04-04T21:51:58.769Z,2.93
2023-04-04T21:54:27.867Z,2.92
2023-04-04T21:56:59.686Z,2.94
2023-04-04T21:59:29.165Z,2.95
2023-04-04T22:01:58.636Z,2.94
2023-04-04T22:04:27.620Z,2.92
2023-04-04T22:06:58.372Z,2.90
2023-04-04T22:09:30.342Z,2.93
2023-04-04T22:12:03.676Z,2.86
2023-04-04T22:14:34.197Z,2.82
2023-04-04T22:17:03.768Z,2.82
2023-04-04T22:19:43.912Z,2.83
2023-04-04T22:22:13.679Z,2.83
2023-04-04T22:24:44.850Z,2.81
2023-04-04T22:27:16.413Z,2.88
2023-04-04T22:29:47.310Z,2.84
2023-04-04T22:32:16.881Z,2.85
2023-04-04T22:34:46.962Z,2.85
2023-04-04T22:37:20.021Z,2.80
2023-04-04T22:39:50.530Z,2.76
2023-04-04T22:42:21.509Z,2.77
2023-04-04T22:44:52.117Z,2.77
2023-04-04T22:47:21.729Z,2.76
2023-04-04T22:49:51.560Z,2.69
2023-04-04T22:52:23.368Z,2.66
2023-04-04T22:54:53.535Z,2.61
2023-04-04T22:57:24.306Z,2.60
2023-04-04T22:59:54.278Z,2.60
2023-04-04T23:02:23.634Z,2.56
2023-04-04T23:04:52.640Z,2.53
2023-04-04T23:07:22.589Z,2.55
2023-04-04T23:09:53.473Z,2.60
2023-04-04T23:12:25.204Z,2.65
2023-04-04T23:14:54.601Z,2.66
2023-04-04T23:17:24.036Z,2.56
2023-04-04T23:19:55.332Z,2.54
2023-04-04T23:22:25.156Z,2.57
2023-04-04T23:24:55.311Z,2.52
2023-04-04T23:27:26.606Z,2.53
2023-04-04T23:29:58.279Z,2.52
2023-04-04T23:32:28.986Z,2.44
2023-04-04T23:34:59.057Z,2.46
2023-04-04T23:37:28.507Z,2.49
2023-04-04T23:39:59.124Z,2.51
2023-04-04T23:42:31.294Z,2.47
2023-04-04T23:45:02.816Z,2.44
2023-04-04T23:47:32.128Z,2.39
2023-04-04T23:50:01.642Z,2.32
2023-04-04T23:52:32.500Z,2.29
2023-04-04T23:55:02.040Z,2.33
2023-04-04T23:57:33.532Z,2.37
